Time;durP1;ratioP1;P1;durP2;ratioP2;P2;SDS_P1;SDS_P2;PMS_P1;PMS_P2;Temp;Humidity;BMP_temperature;BMP_pressure;BME280_temperature;BME280_humidity;BME280_pressure;Samples;Min_cycle;Max_cycle;Signal;HPM_P1;HPM_P2
2023/11/11 00:02:16;;;;;;;55.47;2.00;;;;;;;;;;5050733;28;20931;-71
2023/11/11 00:04:43;;;;;;;55.77;2.50;;;;;;;;;;5050720;28;20454;-71
2023/11/11 00:07:10;;;;;;;55.57;2.20;;;;;;;;;;5050485;28;20996;-71
2023/11/11 00:09:38;;;;;;;55.73;2.20;;;;;;;;;;5050776;28;20958;-71
2023/11/11 00:12:08;;;;;;;56.07;2.30;;;;;;;;;;5049626;28;20477;-71
2023/11/11 00:14:35;;;;;;;55.90;2.20;;;;;;;;;;5050443;28;20445;-71
2023/11/11 00:17:02;;;;;;;55.97;2.20;;;;;;;;;;5050687;28;20452;-71
2023/11/11 00:19:30;;;;;;;55.93;2.43;;;;;;;;;;5050710;28;20449;-71
2023/11/11 00:21:57;;;;;;;56.20;2.53;;;;;;;;;;5050615;28;20474;-71
2023/11/11 00:24:25;;;;;;;55.93;2.20;;;;;;;;;;5050795;28;20486;-71
2023/11/11 00:26:52;;;;;;;55.73;2.20;;;;;;;;;;5050679;28;20865;-71
2023/11/11 00:29:22;;;;;;;55.90;2.17;;;;;;;;;;5050807;28;20462;-71
2023/11/11 00:31:49;;;;;;;55.97;2.40;;;;;;;;;;5050405;28;20468;-71
2023/11/11 00:34:17;;;;;;;56.13;2.60;;;;;;;;;;5050574;28;20930;-71
2023/11/11 00:36:45;;;;;;;55.90;2.30;;;;;;;;;;5050501;28;20900;-72
2023/11/11 00:39:12;;;;;;;55.80;2.30;;;;;;;;;;5050898;28;20517;-71
2023/11/11 00:41:40;;;;;;;55.87;2.40;;;;;;;;;;5050382;28;20470;-73
2023/11/11 00:44:09;;;;;;;56.10;2.20;;;;;;;;;;5050679;28;20822;-71
2023/11/11 00:46:38;;;;;;;55.97;2.27;;;;;;;;;;5050061;28;21016;-71
2023/11/11 00:49:05;;;;;;;55.70;2.00;;;;;;;;;;5050490;28;20462;-71
2023/11/11 00:51:32;;;;;;;55.90;2.30;;;;;;;;;;5050215;28;21008;-71
2023/11/11 00:53:59;;;;;;;56.00;2.37;;;;;;;;;;5050531;28;20461;-71
2023/11/11 00:56:26;;;;;;;56.03;2.10;;;;;;;;;;5050178;28;20446;-71
2023/11/11 00:58:54;;;;;;;55.47;2.40;;;;;;;;;;5050545;28;20450;-71
2023/11/11 01:01:21;;;;;;;55.80;2.20;;;;;;;;;;5050196;28;20472;-71
2023/11/11 01:03:49;;;;;;;55.63;2.20;;;;;;;;;;5050166;28;20531;-71
2023/11/11 01:06:16;;;;;;;55.80;2.20;;;;;;;;;;5050514;28;20501;-71
2023/11/11 01:08:45;;;;;;;55.83;2.30;;;;;;;;;;5050337;28;20453;-71
2023/11/11 01:11:12;;;;;;;55.57;2.10;;;;;;;;;;5050328;28;20482;-71
2023/11/11 01:13:39;;;;;;;56.00;2.53;;;;;;;;;;5050162;28;20943;-71
2023/11/11 01:16:06;;;;;;;56.10;2.40;;;;;;;;;;5050073;28;20448;-71
2023/11/11 01:18:35;;;;;;;56.20;2.50;;;;;;;;;;5050002;28;20536;-71
2023/11/11 01:21:03;;;;;;;56.30;2.60;;;;;;;;;;5050432;28;20832;-71
2023/11/11 01:23:33;;;;;;;55.80;2.30;;;;;;;;;;5051640;28;20560;-71
2023/11/11 01:26:00;;;;;;;55.97;2.50;;;;;;;;;;5053661;28;20489;-71
2023/11/11 01:28:27;;;;;;;56.17;2.40;;;;;;;;;;5053774;28;20447;-71
2023/11/11 01:30:54;;;;;;;56.17;2.30;;;;;;;;;;5045707;28;20479;-71
2023/11/11 01:33:22;;;;;;;56.07;2.60;;;;;;;;;;5053797;28;20538;-71
2023/11/11 01:35:50;;;;;;;55.97;2.30;;;;;;;;;;5053584;28;20530;-71
2023/11/11 01:38:19;;;;;;;56.07;2.33;;;;;;;;;;5053577;28;20510;-71
2023/11/11 01:40:46;;;;;;;56.00;2.23;;;;;;;;;;5053281;28;20557;-71
2023/11/11 01:43:14;;;;;;;56.00;2.50;;;;;;;;;;5053358;28;20458;-71
2023/11/11 01:45:43;;;;;;;56.30;2.30;;;;;;;;;;5053426;28;20508;-72
2023/11/11 01:48:10;;;;;;;55.87;2.20;;;;;;;;;;5053235;28;20454;-72
2023/11/11 01:50:38;;;;;;;55.80;2.03;;;;;;;;;;5053015;28;20525;-72
2023/11/11 01:53:05;;;;;;;56.00;2.30;;;;;;;;;;5053211;28;20454;-72
2023/11/11 01:55:34;;;;;;;55.67;2.30;;;;;;;;;;5053135;28;20446;-72
2023/11/11 01:58:01;;;;;;;55.90;2.20;;;;;;;;;;5053170;28;20541;-72
2023/11/11 02:00:30;;;;;;;55.87;2.20;;;;;;;;;;5053037;28;21012;-72
2023/11/11 02:02:58;;;;;;;55.87;2.10;;;;;;;;;;5053033;28;20942;-72
2023/11/11 02:05:25;;;;;;;55.90;1.97;;;;;;;;;;5052972;28;20529;-72
2023/11/11 02:07:52;;;;;;;56.10;2.27;;;;;;;;;;5052690;28;20868;-72
2023/11/11 02:10:19;;;;;;;55.37;2.00;;;;;;;;;;5052832;28;20485;-72
2023/11/11 02:12:48;;;;;;;55.87;2.40;;;;;;;;;;5052137;28;20566;-72
2023/11/11 02:15:16;;;;;;;55.90;2.30;;;;;;;;;;5052858;28;20446;-72
2023/11/11 02:17:43;;;;;;;55.57;2.20;;;;;;;;;;5052280;28;20453;-72
2023/11/11 02:20:12;;;;;;;56.10;2.20;;;;;;;;;;5053040;28;20446;-72
2023/11/11 02:22:39;;;;;;;55.87;2.00;;;;;;;;;;5052473;28;20447;-72
2023/11/11 02:25:09;;;;;;;55.97;2.43;;;;;;;;;;5052719;28;20561;-72
2023/11/11 02:27:36;;;;;;;55.40;2.10;;;;;;;;;;5052693;28;20486;-72
2023/11/11 02:30:03;;;;;;;56.00;1.73;;;;;;;;;;5051968;28;20968;-72
2023/11/11 02:32:31;;;;;;;55.60;2.00;;;;;;;;;;5052228;28;20458;-72
2023/11/11 02:34:58;;;;;;;55.90;2.17;;;;;;;;;;5052260;28;20866;-72
2023/11/11 02:37:25;;;;;;;55.97;2.30;;;;;;;;;;5052201;28;20450;-72
2023/11/11 02:39:52;;;;;;;55.70;2.13;;;;;;;;;;5052266;28;20458;-72
2023/11/11 02:42:21;;;;;;;56.10;2.50;;;;;;;;;;5052308;28;20546;-72
2023/11/11 02:44:48;;;;;;;55.80;2.27;;;;;;;;;;5052129;28;20451;-72
2023/11/11 02:47:15;;;;;;;56.00;2.50;;;;;;;;;;5051540;28;20492;-72
2023/11/11 02:49:42;;;;;;;55.87;2.43;;;;;;;;;;5052074;28;20553;-72
2023/11/11 02:52:09;;;;;;;56.00;2.10;;;;;;;;;;5052294;28;20474;-72
2023/11/11 02:54:36;;;;;;;56.00;2.20;;;;;;;;;;5052298;28;20770;-71
2023/11/11 02:57:04;;;;;;;55.77;2.37;;;;;;;;;;5051971;28;20442;-72
2023/11/11 02:59:32;;;;;;;56.00;2.70;;;;;;;;;;5052268;28;20450;-71
2023/11/11 03:01:59;;;;;;;56.20;2.60;;;;;;;;;;5044038;28;20469;-70
2023/11/11 03:04:27;;;;;;;56.03;2.50;;;;;;;;;;5051942;28;20947;-71
2023/11/11 03:06:54;;;;;;;56.20;2.60;;;;;;;;;;5051716;28;21028;-71
2023/11/11 03:09:21;;;;;;;56.13;2.70;;;;;;;;;;5051920;28;20460;-71
2023/11/11 03:11:49;;;;;;;56.07;2.70;;;;;;;;;;5052034;28;20586;-71
2023/11/11 03:14:19;;;;;;;56.27;2.50;;;;;;;;;;5051838;28;20457;-71
2023/11/11 03:16:48;;;;;;;55.93;2.63;;;;;;;;;;5052005;28;20446;-71
2023/11/11 03:19:15;;;;;;;56.47;2.60;;;;;;;;;;5051604;28;20934;-71
2023/11/11 03:21:42;;;;;;;56.27;2.80;;;;;;;;;;5051127;28;20552;-71
2023/11/11 03:24:09;;;;;;;56.10;2.60;;;;;;;;;;5051556;28;20545;-72
2023/11/11 03:26:37;;;;;;;55.40;2.60;;;;;;;;;;5051309;28;20485;-71
2023/11/11 03:29:04;;;;;;;56.20;2.70;;;;;;;;;;5051445;28;20456;-71
2023/11/11 03:31:31;;;;;;;56.17;2.63;;;;;;;;;;5050906;28;20469;-71
2023/11/11 03:33:59;;;;;;;55.97;2.60;;;;;;;;;;5051607;28;20885;-71
2023/11/11 03:36:26;;;;;;;56.03;2.50;;;;;;;;;;5051278;28;20449;-71
2023/11/11 03:38:54;;;;;;;56.17;2.70;;;;;;;;;;5051415;28;20512;-71
2023/11/11 03:41:21;;;;;;;56.20;2.70;;;;;;;;;;5050983;28;20824;-71
2023/11/11 03:43:48;;;;;;;56.00;2.40;;;;;;;;;;5050968;28;20891;-71
2023/11/11 03:46:15;;;;;;;55.97;2.30;;;;;;;;;;5050196;28;20484;-71
2023/11/11 03:48:42;;;;;;;56.37;3.00;;;;;;;;;;5051269;28;20879;-71
2023/11/11 03:51:11;;;;;;;56.13;2.57;;;;;;;;;;5050936;28;20466;-71
2023/11/11 03:53:38;;;;;;;62.43;3.17;;;;;;;;;;5051040;28;20469;-71
2023/11/11 03:56:07;;;;;;;55.97;2.30;;;;;;;;;;5050934;28;20515;-71
2023/11/11 03:58:35;;;;;;;56.07;2.50;;;;;;;;;;5050990;28;20537;-71
2023/11/11 04:01:02;;;;;;;56.20;2.20;;;;;;;;;;5050981;28;20986;-71
2023/11/11 04:03:29;;;;;;;56.17;2.17;;;;;;;;;;5050799;28;20446;-70
2023/11/11 04:05:57;;;;;;;55.87;2.43;;;;;;;;;;5050959;28;20480;-71
2023/11/11 04:08:25;;;;;;;55.63;2.60;;;;;;;;;;5050708;28;20490;-71
2023/11/11 04:10:53;;;;;;;55.97;2.60;;;;;;;;;;5049746;28;20486;-71
2023/11/11 04:13:20;;;;;;;55.97;2.00;;;;;;;;;;5050799;28;20481;-70
2023/11/11 04:15:48;;;;;;;55.97;2.40;;;;;;;;;;5050652;28;20902;-70
2023/11/11 04:18:15;;;;;;;56.00;2.40;;;;;;;;;;5050653;28;20541;-71
2023/11/11 04:20:42;;;;;;;55.97;2.20;;;;;;;;;;5050614;28;20470;-71
2023/11/11 04:23:09;;;;;;;55.77;2.40;;;;;;;;;;5050892;28;20496;-71
2023/11/11 04:25:37;;;;;;;55.97;2.07;;;;;;;;;;5050960;28;20449;-71
2023/11/11 04:28:05;;;;;;;55.80;2.30;;;;;;;;;;5042517;28;20878;-71
2023/11/11 04:30:33;;;;;;;55.67;2.37;;;;;;;;;;5050586;28;20470;-72
2023/11/11 04:33:00;;;;;;;55.87;2.30;;;;;;;;;;5050310;28;20454;-72
2023/11/11 04:35:27;;;;;;;55.77;2.40;;;;;;;;;;5050593;28;20446;-71
2023/11/11 04:37:54;;;;;;;55.90;1.80;;;;;;;;;;5050839;28;20453;-72
2023/11/11 04:40:21;;;;;;;55.87;2.03;;;;;;;;;;5050532;28;20480;-71
2023/11/11 04:42:49;;;;;;;56.20;2.37;;;;;;;;;;5050333;28;20450;-72
2023/11/11 04:45:16;;;;;;;55.87;2.20;;;;;;;;;;5050880;28;20450;-72
2023/11/11 04:47:43;;;;;;;55.63;2.13;;;;;;;;;;5049976;28;20482;-71
2023/11/11 04:50:11;;;;;;;55.90;1.97;;;;;;;;;;5050257;28;20456;-71
2023/11/11 04:52:38;;;;;;;55.63;2.30;;;;;;;;;;5050171;28;20454;-72
2023/11/11 04:55:06;;;;;;;55.80;2.07;;;;;;;;;;5050277;28;20449;-72
2023/11/11 04:57:33;;;;;;;55.57;2.07;;;;;;;;;;5052113;28;20439;-72
2023/11/11 05:00:03;;;;;;;55.70;2.13;;;;;;;;;;5054321;28;20450;-72
2023/11/11 05:02:31;;;;;;;55.97;2.00;;;;;;;;;;5054034;28;20462;-72
2023/11/11 05:04:58;;;;;;;55.70;2.00;;;;;;;;;;5054243;28;20443;-70
2023/11/11 05:07:25;;;;;;;55.97;2.20;;;;;;;;;;5054301;28;20940;-71
2023/11/11 05:09:52;;;;;;;55.80;2.20;;;;;;;;;;5054041;28;20464;-71
2023/11/11 05:12:20;;;;;;;55.63;2.20;;;;;;;;;;5054116;28;20454;-71
2023/11/11 05:14:47;;;;;;;55.60;2.10;;;;;;;;;;5054371;28;20454;-71
2023/11/11 05:17:25;;;;;;;55.77;2.20;;;;;;;;;;5054136;28;20446;-71
2023/11/11 05:19:53;;;;;;;55.97;2.20;;;;;;;;;;5053862;28;20454;-71
2023/11/11 05:22:20;;;;;;;55.80;2.33;;;;;;;;;;5053705;28;20465;-71
2023/11/11 05:24:47;;;;;;;55.73;2.30;;;;;;;;;;5053650;28;20464;-71
2023/11/11 05:27:15;;;;;;;56.20;2.67;;;;;;;;;;5053891;28;21001;-71
2023/11/11 05:29:42;;;;;;;56.40;2.80;;;;;;;;;;5054013;28;20450;-71
2023/11/11 05:32:09;;;;;;;56.20;2.30;;;;;;;;;;5053919;28;20470;-71
2023/11/11 05:34:38;;;;;;;55.90;2.77;;;;;;;;;;5053972;28;20830;-71
2023/11/11 05:37:05;;;;;;;56.07;2.63;;;;;;;;;;5054195;28;20462;-71
2023/11/11 05:39:32;;;;;;;55.97;2.57;;;;;;;;;;5053958;28;20473;-71
2023/11/11 05:41:59;;;;;;;56.50;3.00;;;;;;;;;;5053492;28;20469;-70
2023/11/11 05:44:26;;;;;;;56.00;2.37;;;;;;;;;;5053583;28;20454;-72
2023/11/11 05:46:53;;;;;;;55.90;2.50;;;;;;;;;;5052927;28;20453;-71
2023/11/11 05:49:20;;;;;;;55.90;2.23;;;;;;;;;;5053340;28;20449;-72
2023/11/11 05:51:49;;;;;;;56.10;2.37;;;;;;;;;;5053295;28;20844;-71
2023/11/11 05:54:16;;;;;;;55.93;2.40;;;;;;;;;;5053452;28;20442;-71
2023/11/11 05:56:43;;;;;;;56.07;2.43;;;;;;;;;;5052875;28;20953;-69
2023/11/11 05:59:10;;;;;;;56.00;2.30;;;;;;;;;;5053371;28;20500;-70
2023/11/11 06:01:37;;;;;;;55.87;2.13;;;;;;;;;;5052769;28;20497;-70
2023/11/11 06:04:05;;;;;;;56.30;2.60;;;;;;;;;;5053186;28;20489;-70
2023/11/11 06:06:32;;;;;;;55.83;2.40;;;;;;;;;;5052747;28;20446;-71
2023/11/11 06:09:00;;;;;;;55.73;2.30;;;;;;;;;;5052232;28;20490;-71
2023/11/11 06:11:27;;;;;;;56.30;3.07;;;;;;;;;;5052366;28;20853;-71
2023/11/11 06:13:55;;;;;;;56.00;2.80;;;;;;;;;;5052498;28;21017;-71
2023/11/11 06:16:22;;;;;;;56.10;2.37;;;;;;;;;;5052487;28;20949;-71
2023/11/11 06:18:50;;;;;;;56.10;2.90;;;;;;;;;;5052651;28;20433;-71
2023/11/11 06:21:17;;;;;;;55.87;2.30;;;;;;;;;;5052818;28;20583;-71
2023/11/11 06:23:44;;;;;;;55.80;2.20;;;;;;;;;;5052524;28;20528;-71
2023/11/11 06:26:13;;;;;;;56.00;2.80;;;;;;;;;;5052993;28;20442;-72
2023/11/11 06:28:40;;;;;;;56.00;2.70;;;;;;;;;;5052868;28;20482;-72
2023/11/11 06:31:07;;;;;;;55.90;2.70;;;;;;;;;;5052658;28;20481;-72
2023/11/11 06:33:34;;;;;;;55.93;2.50;;;;;;;;;;5052448;28;20460;-72
2023/11/11 06:36:01;;;;;;;55.70;2.40;;;;;;;;;;5052589;28;20896;-72
2023/11/11 06:38:28;;;;;;;56.03;2.53;;;;;;;;;;5052775;28;20454;-72
2023/11/11 06:40:55;;;;;;;55.93;2.60;;;;;;;;;;5053526;28;20466;-72
2023/11/11 06:43:24;;;;;;;55.70;2.53;;;;;;;;;;5052985;28;20450;-72
2023/11/11 06:45:51;;;;;;;56.17;2.70;;;;;;;;;;5052659;28;20450;-72
2023/11/11 06:48:18;;;;;;;56.10;2.73;;;;;;;;;;5052114;28;20474;-72
2023/11/11 06:50:45;;;;;;;55.87;2.40;;;;;;;;;;5052819;28;21003;-72
2023/11/11 06:53:12;;;;;;;55.90;2.60;;;;;;;;;;5051927;28;20946;-72
2023/11/11 06:55:39;;;;;;;56.40;3.13;;;;;;;;;;5051965;28;20450;-72
2023/11/11 06:58:07;;;;;;;55.87;2.40;;;;;;;;;;5051951;28;20549;-72
2023/11/11 07:00:35;;;;;;;56.00;2.80;;;;;;;;;;5051820;28;20868;-73
2023/11/11 07:03:03;;;;;;;55.80;2.40;;;;;;;;;;5051878;28;20448;-73
2023/11/11 07:05:30;;;;;;;55.80;2.70;;;;;;;;;;5051929;28;20532;-73
2023/11/11 07:07:57;;;;;;;55.90;2.60;;;;;;;;;;5051799;28;20521;-73
2023/11/11 07:10:24;;;;;;;55.87;2.40;;;;;;;;;;5051826;28;20564;-72
2023/11/11 07:12:51;;;;;;;55.90;2.30;;;;;;;;;;5051528;28;20986;-72
2023/11/11 07:15:20;;;;;;;55.90;2.50;;;;;;;;;;5051858;28;20461;-72
2023/11/11 07:17:49;;;;;;;56.07;2.50;;;;;;;;;;5051733;28;20881;-73
2023/11/11 07:20:18;;;;;;;55.87;2.50;;;;;;;;;;5051070;28;20463;-73
2023/11/11 07:22:46;;;;;;;55.77;2.40;;;;;;;;;;5051851;28;20450;-73
2023/11/11 07:25:13;;;;;;;55.67;2.40;;;;;;;;;;5051552;28;20446;-73
2023/11/11 07:27:40;;;;;;;56.10;2.17;;;;;;;;;;5052219;28;20843;-71
2023/11/11 07:30:10;;;;;;;55.73;2.50;;;;;;;;;;5051585;28;20458;-73
2023/11/11 07:32:37;;;;;;;55.80;2.47;;;;;;;;;;5051818;28;20482;-73
2023/11/11 07:35:06;;;;;;;56.30;2.50;;;;;;;;;;5051837;28;20464;-71
2023/11/11 07:37:35;;;;;;;55.70;2.43;;;;;;;;;;5051816;28;20454;-72
2023/11/11 07:40:04;;;;;;;55.67;2.40;;;;;;;;;;5051585;28;20453;-72
2023/11/11 07:42:31;;;;;;;55.97;2.60;;;;;;;;;;5051568;28;20901;-72
2023/11/11 07:44:58;;;;;;;55.67;2.07;;;;;;;;;;5051324;28;20817;-72
2023/11/11 07:47:26;;;;;;;55.80;2.50;;;;;;;;;;5051355;28;20980;-71
2023/11/11 07:49:53;;;;;;;55.93;2.50;;;;;;;;;;5051334;28;20945;-71
2023/11/11 07:52:21;;;;;;;55.63;2.30;;;;;;;;;;5051271;28;20576;-71
2023/11/11 07:54:48;;;;;;;57.90;2.90;;;;;;;;;;5050885;28;20541;-71
2023/11/11 07:57:16;;;;;;;55.83;2.43;;;;;;;;;;5051070;28;20919;-72
2023/11/11 07:59:43;;;;;;;66.93;3.83;;;;;;;;;;5051072;28;20442;-71
2023/11/11 08:02:14;;;;;;;55.87;2.20;;;;;;;;;;5051181;28;20466;-71
2023/11/11 08:04:42;;;;;;;55.30;1.80;;;;;;;;;;5051247;28;20460;-71
2023/11/11 08:07:11;;;;;;;55.90;2.17;;;;;;;;;;5050723;28;20446;-71
2023/11/11 08:09:39;;;;;;;55.33;2.30;;;;;;;;;;5050981;28;20559;-72
2023/11/11 08:12:07;;;;;;;55.60;2.10;;;;;;;;;;5050612;28;20531;-72
2023/11/11 08:14:34;;;;;;;55.47;2.50;;;;;;;;;;5051188;28;20499;-72
2023/11/11 08:17:01;;;;;;;55.70;2.40;;;;;;;;;;5050863;28;20977;-72
2023/11/11 08:19:28;;;;;;;55.87;2.30;;;;;;;;;;5051194;28;20481;-72
2023/11/11 08:21:55;;;;;;;55.90;2.10;;;;;;;;;;5050718;28;20473;-72
2023/11/11 08:24:22;;;;;;;55.63;2.23;;;;;;;;;;5050635;28;20886;-72
2023/11/11 08:26:51;;;;;;;55.77;1.93;;;;;;;;;;5050548;28;20542;-72
2023/11/11 08:29:18;;;;;;;55.77;1.93;;;;;;;;;;5050914;28;20938;-72
2023/11/11 08:31:45;;;;;;;56.00;2.20;;;;;;;;;;5051286;28;20482;-72
2023/11/11 08:34:12;;;;;;;55.87;2.23;;;;;;;;;;5055184;28;20823;-72
2023/11/11 08:36:40;;;;;;;55.23;1.90;;;;;;;;;;5055042;28;20450;-72
2023/11/11 08:39:07;;;;;;;55.57;2.20;;;;;;;;;;5054974;28;20447;-73
2023/11/11 08:41:34;;;;;;;55.70;2.10;;;;;;;;;;5055150;28;20512;-72
2023/11/11 08:44:03;;;;;;;55.80;2.20;;;;;;;;;;5055147;28;20958;-72
2023/11/11 08:46:31;;;;;;;55.90;2.20;;;;;;;;;;5054936;28;20809;-72
2023/11/11 08:48:58;;;;;;;55.87;2.20;;;;;;;;;;5055139;28;20486;-72
2023/11/11 08:51:25;;;;;;;55.93;2.63;;;;;;;;;;5055541;28;20901;-72
2023/11/11 08:53:52;;;;;;;56.03;2.30;;;;;;;;;;5054860;28;20496;-72
2023/11/11 08:56:19;;;;;;;55.87;2.00;;;;;;;;;;5054831;28;20473;-72
2023/11/11 08:58:46;;;;;;;55.67;2.13;;;;;;;;;;5054725;28;20536;-72
2023/11/11 09:01:14;;;;;;;55.80;2.20;;;;;;;;;;5054896;28;20465;-72
2023/11/11 09:03:42;;;;;;;56.03;2.30;;;;;;;;;;5055144;28;20455;-72
2023/11/11 09:06:09;;;;;;;55.73;2.50;;;;;;;;;;5054706;28;20503;-72
2023/11/11 09:08:37;;;;;;;55.67;2.30;;;;;;;;;;5055108;28;20484;-73
2023/11/11 09:11:06;;;;;;;55.90;2.20;;;;;;;;;;5054498;28;20481;-72
2023/11/11 09:13:33;;;;;;;55.70;2.20;;;;;;;;;;5054541;28;20465;-72
2023/11/11 09:16:00;;;;;;;56.10;3.00;;;;;;;;;;5054587;28;21058;-72
2023/11/11 09:18:29;;;;;;;55.90;2.30;;;;;;;;;;5054297;28;20537;-72
2023/11/11 09:20:56;;;;;;;55.87;2.50;;;;;;;;;;5054436;28;20476;-72
2023/11/11 09:23:23;;;;;;;55.67;2.30;;;;;;;;;;5054744;28;20473;-72
2023/11/11 09:25:50;;;;;;;55.90;2.27;;;;;;;;;;5054764;28;20521;-72
2023/11/11 09:28:18;;;;;;;55.90;2.00;;;;;;;;;;5046321;28;20482;-72
2023/11/11 09:30:45;;;;;;;59.53;2.83;;;;;;;;;;5054426;28;20469;-73
2023/11/11 09:33:12;;;;;;;55.90;2.20;;;;;;;;;;5053871;28;20476;-72
2023/11/11 09:35:40;;;;;;;55.77;2.57;;;;;;;;;;5053976;28;20473;-72
2023/11/11 09:38:07;;;;;;;55.87;2.07;;;;;;;;;;5053766;28;20446;-73
2023/11/11 09:40:35;;;;;;;55.90;2.27;;;;;;;;;;5053915;28;20556;-72
2023/11/11 09:43:03;;;;;;;55.60;1.77;;;;;;;;;;5053220;28;20830;-72
2023/11/11 09:45:30;;;;;;;55.30;2.17;;;;;;;;;;5053610;28;20546;-72
2023/11/11 09:48:00;;;;;;;55.83;2.10;;;;;;;;;;5053596;28;20450;-72
2023/11/11 09:50:28;;;;;;;55.47;2.00;;;;;;;;;;5053685;28;21062;-72
2023/11/11 09:52:57;;;;;;;55.77;1.90;;;;;;;;;;5053536;28;20447;-72
2023/11/11 09:55:24;;;;;;;55.73;2.00;;;;;;;;;;5053838;28;20454;-72
2023/11/11 09:57:52;;;;;;;55.90;1.90;;;;;;;;;;5053647;28;20455;-72
2023/11/11 10:00:19;;;;;;;56.00;2.20;;;;;;;;;;5052854;28;20494;-72
2023/11/11 10:02:46;;;;;;;56.00;2.00;;;;;;;;;;5052637;28;20461;-72
2023/11/11 10:05:14;;;;;;;55.77;2.10;;;;;;;;;;5053343;28;20451;-72
2023/11/11 10:07:42;;;;;;;55.77;2.10;;;;;;;;;;5053574;28;20831;-72
2023/11/11 10:10:12;;;;;;;55.73;1.93;;;;;;;;;;5052758;28;20490;-72
2023/11/11 10:12:39;;;;;;;55.67;2.20;;;;;;;;;;5053203;28;20865;-72
2023/11/11 10:15:08;;;;;;;55.63;2.10;;;;;;;;;;5053451;28;20466;-72
2023/11/11 10:17:38;;;;;;;55.77;2.10;;;;;;;;;;5053208;28;20580;-72
2023/11/11 10:20:08;;;;;;;55.67;2.00;;;;;;;;;;5053346;28;20450;-71
2023/11/11 10:22:37;;;;;;;55.90;2.10;;;;;;;;;;5053193;28;20454;-71
2023/11/11 10:25:05;;;;;;;55.30;2.10;;;;;;;;;;5052850;28;20460;-71
2023/11/11 10:27:33;;;;;;;55.53;1.93;;;;;;;;;;5052743;28;20458;-72
2023/11/11 10:30:01;;;;;;;55.67;2.10;;;;;;;;;;5052740;28;20487;-72
2023/11/11 10:32:29;;;;;;;56.13;1.90;;;;;;;;;;5052673;28;21033;-72
2023/11/11 10:34:56;;;;;;;55.67;2.10;;;;;;;;;;5052767;28;20872;-71
2023/11/11 10:37:26;;;;;;;55.60;1.77;;;;;;;;;;5052522;28;20470;-71
2023/11/11 10:39:53;;;;;;;55.67;1.90;;;;;;;;;;5052628;28;20446;-71
2023/11/11 10:42:21;;;;;;;55.67;2.10;;;;;;;;;;5052762;28;20439;-71
2023/11/11 10:44:50;;;;;;;55.73;2.10;;;;;;;;;;5052547;28;20840;-71
2023/11/11 10:47:17;;;;;;;56.57;2.60;;;;;;;;;;5052149;28;21070;-72
2023/11/11 10:49:44;;;;;;;55.67;2.00;;;;;;;;;;5052536;28;20483;-72
2023/11/11 10:52:12;;;;;;;56.00;2.00;;;;;;;;;;5052214;28;20478;-72
2023/11/11 10:54:41;;;;;;;55.77;1.93;;;;;;;;;;5052038;28;20455;-71
2023/11/11 10:57:09;;;;;;;55.77;2.10;;;;;;;;;;5052711;28;20846;-71
2023/11/11 10:59:36;;;;;;;55.87;1.90;;;;;;;;;;5052571;28;20492;-71
2023/11/11 11:02:04;;;;;;;56.00;2.20;;;;;;;;;;5052576;28;20485;-72
2023/11/11 11:04:32;;;;;;;55.80;2.07;;;;;;;;;;5052845;28;20466;-71
2023/11/11 11:07:03;;;;;;;55.50;2.20;;;;;;;;;;5051876;28;20957;-72
2023/11/11 11:09:38;;;;;;;55.90;1.90;;;;;;;;;;5052220;28;20857;-72
2023/11/11 11:12:08;;;;;;;55.80;2.00;;;;;;;;;;5052190;28;20526;-72
2023/11/11 11:14:43;;;;;;;55.30;1.90;;;;;;;;;;5052224;28;20478;-71
2023/11/11 11:17:12;;;;;;;55.60;2.03;;;;;;;;;;5051962;28;20448;-71
2023/11/11 11:19:51;;;;;;;55.83;2.00;;;;;;;;;;5051875;28;20453;-72
2023/11/11 11:22:19;;;;;;;55.70;2.00;;;;;;;;;;5051893;28;20446;-72
2023/11/11 11:24:46;;;;;;;55.37;2.00;;;;;;;;;;5051878;28;20476;-71
2023/11/11 11:27:13;;;;;;;55.50;2.03;;;;;;;;;;5051937;28;20512;-72
2023/11/11 11:29:41;;;;;;;55.37;2.10;;;;;;;;;;5051697;28;20477;-72
2023/11/11 11:32:09;;;;;;;55.47;2.00;;;;;;;;;;5051365;28;20539;-72
2023/11/11 11:34:38;;;;;;;56.00;2.00;;;;;;;;;;5051773;28;20777;-72
2023/11/11 11:37:06;;;;;;;55.73;1.80;;;;;;;;;;5051434;28;20446;-72
2023/11/11 11:39:39;;;;;;;55.80;2.10;;;;;;;;;;5051786;28;20469;-72
2023/11/11 11:42:13;;;;;;;55.33;1.73;;;;;;;;;;5051212;28;20463;-72
2023/11/11 11:44:40;;;;;;;55.67;1.83;;;;;;;;;;5051616;28;20533;-72
2023/11/11 11:47:07;;;;;;;55.80;2.00;;;;;;;;;;5051139;28;20445;-72
2023/11/11 11:49:35;;;;;;;56.00;2.00;;;;;;;;;;5051348;28;21010;-72
2023/11/11 11:52:04;;;;;;;55.53;1.80;;;;;;;;;;5051106;28;20470;-72
2023/11/11 11:54:31;;;;;;;55.87;2.00;;;;;;;;;;5051551;28;20451;-72
2023/11/11 11:57:04;;;;;;;55.43;1.73;;;;;;;;;;5051034;28;20546;-72
2023/11/11 11:59:33;;;;;;;55.33;2.10;;;;;;;;;;5051600;28;20851;-72
2023/11/11 12:02:01;;;;;;;55.60;2.00;;;;;;;;;;5051009;28;20527;-72
2023/11/11 12:04:28;;;;;;;55.70;2.10;;;;;;;;;;5051256;28;20815;-72
2023/11/11 12:06:57;;;;;;;56.50;2.67;;;;;;;;;;5050126;28;20457;-72
2023/11/11 12:09:26;;;;;;;55.83;1.83;;;;;;;;;;5050758;28;20591;-72
2023/11/11 12:11:53;;;;;;;55.50;1.90;;;;;;;;;;5051006;28;21023;-72
2023/11/11 12:14:23;;;;;;;55.97;1.97;;;;;;;;;;5051327;28;20454;-72
2023/11/11 12:16:52;;;;;;;55.43;1.77;;;;;;;;;;5051087;28;20541;-72
2023/11/11 12:19:21;;;;;;;55.53;1.90;;;;;;;;;;5051155;28;20900;-72
2023/11/11 12:21:50;;;;;;;55.80;1.90;;;;;;;;;;5051161;28;20539;-72
2023/11/11 12:24:18;;;;;;;55.67;2.00;;;;;;;;;;5051100;28;20513;-72
2023/11/11 12:26:48;;;;;;;55.37;2.10;;;;;;;;;;5051022;28;20455;-72
2023/11/11 12:29:15;;;;;;;55.90;1.90;;;;;;;;;;5050916;28;20487;-72
2023/11/11 12:31:46;;;;;;;56.00;1.90;;;;;;;;;;5050951;28;20466;-72
2023/11/11 12:34:13;;;;;;;56.00;2.03;;;;;;;;;;5050782;28;20454;-71
2023/11/11 12:36:41;;;;;;;55.87;1.87;;;;;;;;;;5050665;28;20545;-71
2023/11/11 12:39:09;;;;;;;56.00;2.50;;;;;;;;;;5051139;28;20533;-71
2023/11/11 12:41:37;;;;;;;55.87;2.10;;;;;;;;;;5050685;28;20513;-71
2023/11/11 12:44:07;;;;;;;56.10;2.60;;;;;;;;;;5050811;28;20823;-71
2023/11/11 12:46:39;;;;;;;56.30;2.63;;;;;;;;;;5051275;28;20457;-71
2023/11/11 12:49:10;;;;;;;56.30;2.70;;;;;;;;;;5050756;28;20447;-71
2023/11/11 12:51:38;;;;;;;56.07;2.40;;;;;;;;;;5050851;28;20468;-71
2023/11/11 12:54:05;;;;;;;56.17;2.50;;;;;;;;;;5050924;28;20797;-71
2023/11/11 12:56:32;;;;;;;55.67;2.00;;;;;;;;;;5050793;28;20451;-71
2023/11/11 12:59:08;;;;;;;55.67;2.17;;;;;;;;;;5050631;28;20450;-71
2023/11/11 13:01:35;;;;;;;55.77;2.10;;;;;;;;;;5050707;28;20827;-71
2023/11/11 13:04:03;;;;;;;55.77;2.03;;;;;;;;;;5050798;28;20459;-71
2023/11/11 13:06:32;;;;;;;55.77;2.50;;;;;;;;;;5050979;28;20458;-71
2023/11/11 13:08:59;;;;;;;55.80;2.07;;;;;;;;;;5050482;28;20451;-71
2023/11/11 13:11:27;;;;;;;55.80;2.00;;;;;;;;;;5050641;28;20495;-72
2023/11/11 13:13:54;;;;;;;56.10;1.90;;;;;;;;;;5050825;28;20954;-72
2023/11/11 13:16:22;;;;;;;55.87;1.80;;;;;;;;;;5050217;28;20454;-72
2023/11/11 13:18:49;;;;;;;55.57;2.00;;;;;;;;;;5053000;28;20451;-72
2023/11/11 13:21:18;;;;;;;55.73;2.03;;;;;;;;;;5054309;28;20458;-72
2023/11/11 13:23:45;;;;;;;56.10;2.07;;;;;;;;;;5054214;28;20541;-72
2023/11/11 13:26:13;;;;;;;55.57;1.77;;;;;;;;;;5054094;28;20455;-72
2023/11/11 13:28:40;;;;;;;55.87;1.90;;;;;;;;;;5054140;28;20897;-72
2023/11/11 13:31:07;;;;;;;55.67;1.90;;;;;;;;;;5054042;28;20495;-72
2023/11/11 13:33:36;;;;;;;55.90;2.00;;;;;;;;;;5053954;28;20451;-72
2023/11/11 13:36:07;;;;;;;55.83;1.90;;;;;;;;;;5053883;28;20958;-72
2023/11/11 13:38:35;;;;;;;56.03;2.03;;;;;;;;;;5054101;28;20461;-72
2023/11/11 13:41:04;;;;;;;55.67;1.90;;;;;;;;;;5054456;28;20525;-72
2023/11/11 13:43:31;;;;;;;55.87;1.97;;;;;;;;;;5045609;28;20453;-72
2023/11/11 13:45:58;;;;;;;55.80;1.90;;;;;;;;;;5053835;28;20579;-72
2023/11/11 13:48:25;;;;;;;56.10;2.40;;;;;;;;;;5053668;28;20475;-72
2023/11/11 13:50:55;;;;;;;55.90;2.10;;;;;;;;;;5053605;28;20498;-72
2023/11/11 13:53:23;;;;;;;55.73;2.17;;;;;;;;;;5053963;28;20455;-72
2023/11/11 13:55:50;;;;;;;55.77;2.10;;;;;;;;;;5053423;28;20516;-72
2023/11/11 13:58:17;;;;;;;57.20;2.10;;;;;;;;;;5053224;28;20533;-72
2023/11/11 14:00:44;;;;;;;56.40;2.20;;;;;;;;;;5053521;28;20468;-72
2023/11/11 14:03:12;;;;;;;56.17;2.33;;;;;;;;;;5053335;28;20447;-72
2023/11/11 14:05:41;;;;;;;56.07;2.20;;;;;;;;;;5053590;28;20858;-72
2023/11/11 14:08:09;;;;;;;56.07;2.40;;;;;;;;;;5053130;28;20468;-72
2023/11/11 14:10:36;;;;;;;56.00;1.97;;;;;;;;;;5053133;28;20505;-72
2023/11/11 14:13:03;;;;;;;55.83;1.90;;;;;;;;;;5053524;28;20450;-72
2023/11/11 14:15:38;;;;;;;55.90;1.90;;;;;;;;;;5053697;28;20442;-72
2023/11/11 14:18:05;;;;;;;55.93;2.03;;;;;;;;;;5053382;28;20892;-72
2023/11/11 14:20:32;;;;;;;56.00;2.10;;;;;;;;;;5045254;28;20463;-73
2023/11/11 14:23:00;;;;;;;56.13;1.97;;;;;;;;;;5053066;28;20527;-73
2023/11/11 14:25:28;;;;;;;56.00;1.93;;;;;;;;;;5053184;28;20451;-73
2023/11/11 14:27:55;;;;;;;55.90;2.17;;;;;;;;;;5053205;28;20469;-73
2023/11/11 14:30:23;;;;;;;56.00;2.20;;;;;;;;;;5053138;28;21009;-73
2023/11/11 14:32:50;;;;;;;56.10;2.00;;;;;;;;;;5064516;28;20486;-73
2023/11/11 14:35:20;;;;;;;55.77;2.20;;;;;;;;;;5064251;28;20465;-73